KCIU/CIU METAR and TAF weather

Enter ICAO airport designator
Station Type Date Time Source
KCIU METAR 2019/02/23 23:07 UTC NOAA

KCIU 232307Z AUTO 11019G24KT 7SM -SN SCT010 BKN041 OVC065 M02/M04 A2996 RMK AO2 P0000 FZRANO


Station Type Date Time Source
KCIU Decoded METAR 2019/02/23 23:07 UTC NOAA

Sault Ste Marie, Chippewa County International Airport, MI, United States (KCIU) 46-15N 084-28W
Feb 23, 2019 - 06:07 PM EST / 2019.02.23 2307 UTC
Wind: from the ESE (110 degrees) at 22 MPH (19 KT) gusting to 28 MPH (24 KT):0
Visibility: 7 mile(s):0
Sky conditions: overcast
Weather: light snow
Precipitation last hour: A trace
Temperature: 28 F (-2 C)
Windchill: 14 F (-10 C):1
Dew Point: 24 F (-4 C)
Relative Humidity: 86%
Pressure (altimeter): 29.96 in. Hg (1014 hPa)
ob: KCIU 232307Z AUTO 11019G24KT 7SM -SN SCT010 BKN041 OVC065 M02/M04 A2996 RMK AO2 P0000 FZRANO
cycle: 23

Station Type Date Time Source
KCIU TAF UTC NOAA

Error!


Example: see airport list